Time;durP1;ratioP1;P1;durP2;ratioP2;P2;SDS_P1;SDS_P2;PMS_P1;PMS_P2;Temp;Humidity;BMP_temperature;BMP_pressure;BME280_temperature;BME280_humidity;BME280_pressure;Samples;Min_cycle;Max_cycle;Signal;HPM_P1;HPM_P2
2022/03/22 00:00:06;;;;;;;31.20;16.15;;;;;;;0.35;46.26;96892.97;5083512;28;20028;-73
2022/03/22 00:02:32;;;;;;;27.10;15.90;;;;;;;0.42;45.51;96890.88;5083184;28;20529;-72
2022/03/22 00:04:57;;;;;;;25.83;13.50;;;;;;;0.34;45.47;96884.19;5083039;28;20530;-71
2022/03/22 00:07:22;;;;;;;25.42;14.35;;;;;;;0.40;45.68;96882.16;5079480;28;20047;-71
2022/03/22 00:09:48;;;;;;;24.23;12.85;;;;;;;0.52;44.87;96875.38;5084065;28;20325;-71
2022/03/22 00:12:13;;;;;;;24.58;12.60;;;;;;;0.63;44.24;96877.50;5084289;28;20028;-72
2022/03/22 00:14:39;;;;;;;22.67;12.90;;;;;;;0.61;43.69;96874.94;5082342;28;20028;-72
2022/03/22 00:17:05;;;;;;;30.25;13.43;;;;;;;0.36;44.84;96876.19;5081312;28;20024;-72
2022/03/22 00:19:30;;;;;;;39.45;19.50;;;;;;;0.39;45.59;96872.56;5082105;28;20027;-71
2022/03/22 00:21:56;;;;;;;44.88;22.65;;;;;;;0.33;46.62;96881.63;5081209;28;20036;-72
2022/03/22 00:24:21;;;;;;;43.38;20.65;;;;;;;0.32;46.05;96875.47;5083657;28;20073;-71
2022/03/22 00:26:46;;;;;;;39.78;19.13;;;;;;;0.38;46.96;96869.03;5081263;28;20367;-72
2022/03/22 00:29:12;;;;;;;32.03;17.40;;;;;;;0.31;46.28;96873.78;5080311;28;20027;-72
2022/03/22 00:31:39;;;;;;;31.27;16.02;;;;;;;0.16;46.61;96870.09;5085456;28;20435;-72
2022/03/22 00:34:04;;;;;;;27.67;14.57;;;;;;;0.12;46.67;96873.84;5083066;28;20111;-71
2022/03/22 00:36:31;;;;;;;30.90;15.45;;;;;;;0.05;46.98;96875.94;5080802;28;20097;-72
2022/03/22 00:38:57;;;;;;;29.80;14.40;;;;;;;0.12;46.28;96873.84;5083905;28;20030;-71
2022/03/22 00:41:22;;;;;;;23.40;13.52;;;;;;;0.20;46.20;96862.91;5085634;28;20039;-72
2022/03/22 00:43:48;;;;;;;26.45;13.55;;;;;;;0.24;45.84;96872.38;5085215;28;20035;-72
2022/03/22 00:46:13;;;;;;;29.83;14.60;;;;;;;0.47;45.74;96857.16;5085348;28;20452;-72
2022/03/22 00:48:40;;;;;;;28.13;14.27;;;;;;;0.43;46.54;96864.38;5085714;28;20416;-70
2022/03/22 00:51:06;;;;;;;26.13;14.18;;;;;;;0.40;47.37;96866.31;5084727;28;20059;-72
2022/03/22 00:53:32;;;;;;;24.77;13.82;;;;;;;0.34;47.79;96863.06;5085832;28;20024;-72
2022/03/22 00:56:00;;;;;;;26.52;14.57;;;;;;;0.32;47.85;96858.81;5085416;28;20384;-72
2022/03/22 00:58:26;;;;;;;27.38;14.88;;;;;;;0.23;47.29;96866.25;5084334;28;20019;-71
2022/03/22 01:00:51;;;;;;;27.83;13.55;;;;;;;0.29;47.72;96862.44;5085277;28;20028;-71
2022/03/22 01:03:17;;;;;;;27.33;13.85;;;;;;;0.32;47.10;96869.38;5085002;28;20028;-71
2022/03/22 01:05:42;;;;;;;29.77;14.32;;;;;;;0.37;47.18;96867.34;5085138;28;20050;-72
2022/03/22 01:08:10;;;;;;;25.50;13.70;;;;;;;0.38;47.13;96862.91;5084563;28;20080;-71
2022/03/22 01:10:41;;;;;;;27.38;14.77;;;;;;;0.46;47.09;96858.09;5085456;28;20027;-72
2022/03/22 01:13:07;;;;;;;27.63;14.75;;;;;;;0.53;47.47;96848.94;5084556;28;20036;-72
2022/03/22 01:15:33;;;;;;;33.40;15.75;;;;;;;0.51;47.63;96852.56;5085347;28;20016;-72
2022/03/22 01:18:05;;;;;;;31.33;15.50;;;;;;;0.53;47.75;96846.28;5083625;28;20020;-71
2022/03/22 01:20:31;;;;;;;29.17;15.70;;;;;;;0.54;47.30;96849.78;5084766;28;20043;-72
2022/03/22 01:22:57;;;;;;;30.35;15.38;;;;;;;0.56;47.31;96846.13;5084641;28;20064;-72
2022/03/22 01:25:25;;;;;;;29.92;15.55;;;;;;;0.59;47.76;96845.09;5084759;28;20051;-71
2022/03/22 01:27:50;;;;;;;33.10;16.30;;;;;;;0.61;47.56;96837.97;5067642;28;20032;-71
2022/03/22 01:30:19;;;;;;;31.90;16.77;;;;;;;0.68;47.32;96838.47;5084222;28;20413;-72
2022/03/22 01:32:45;;;;;;;27.92;14.77;;;;;;;0.53;47.33;96835.72;5085653;28;20031;-72
2022/03/22 01:35:10;;;;;;;31.00;15.20;;;;;;;0.35;47.00;96835.75;5084244;28;20151;-72
2022/03/22 01:37:37;;;;;;;24.70;12.50;;;;;;;0.34;47.36;96836.66;5084893;28;20343;-72
2022/03/22 01:40:03;;;;;;;25.40;12.85;;;;;;;0.44;47.05;96833.53;5084678;28;20111;-72
2022/03/22 01:42:29;;;;;;;21.60;11.95;;;;;;;0.33;47.20;96839.38;5084561;28;20028;-71
2022/03/22 01:44:54;;;;;;;18.88;11.20;;;;;;;0.22;46.71;96834.66;5085261;28;20039;-71
2022/03/22 01:47:20;;;;;;;19.73;11.82;;;;;;;0.16;47.25;96838.44;5084227;28;20456;-71
2022/03/22 01:49:47;;;;;;;21.73;12.88;;;;;;;0.10;48.06;96829.06;5085080;28;20119;-71
2022/03/22 01:52:17;;;;;;;24.55;12.93;;;;;;;0.06;48.75;96824.03;5084122;28;20153;-71
2022/03/22 01:54:46;;;;;;;21.23;11.98;;;;;;;0.09;48.81;96827.38;5084587;28;20521;-71
2022/03/22 01:57:12;;;;;;;25.02;13.95;;;;;;;0.17;48.83;96831.41;5083271;28;20035;-71
2022/03/22 01:59:37;;;;;;;22.90;12.80;;;;;;;0.22;49.69;96832.03;5082976;28;20410;-71
2022/03/22 02:07:34;;;;;;;20.70;12.45;;;;;;;0.17;49.54;96831.41;5084850;28;20050;-71
2022/03/22 02:10:00;;;;;;;23.05;13.05;;;;;;;0.20;49.37;96828.59;5083098;28;20028;-71
2022/03/22 02:12:26;;;;;;;25.17;12.80;;;;;;;0.19;49.49;96819.84;5084120;28;20471;-70
2022/03/22 02:14:52;;;;;;;21.67;12.85;;;;;;;0.06;49.06;96821.38;5084580;28;20020;-72
2022/03/22 02:17:18;;;;;;;24.80;13.32;;;;;;;0.02;49.35;96815.41;5083900;28;20048;-70
2022/03/22 02:19:43;;;;;;;22.95;12.43;;;;;;;-0.13;49.54;96819.69;5084904;28;20387;-72
2022/03/22 02:22:12;;;;;;;23.85;13.18;;;;;;;-0.11;50.27;96814.34;5082872;28;20106;-70
2022/03/22 02:24:37;;;;;;;23.30;12.48;;;;;;;-0.19;49.72;96809.41;5083135;28;20028;-72
2022/03/22 02:27:03;;;;;;;24.58;12.90;;;;;;;-0.20;50.13;96813.84;5084374;28;20024;-72
2022/03/22 02:29:29;;;;;;;19.15;12.45;;;;;;;-0.09;50.29;96821.22;5086933;28;20032;-72
2022/03/22 02:31:54;;;;;;;22.95;12.70;;;;;;;-0.16;50.40;96814.56;5087836;28;20032;-72
2022/03/22 02:34:20;;;;;;;24.70;12.85;;;;;;;-0.17;49.40;96810.19;5069353;28;20135;-72
2022/03/22 02:36:45;;;;;;;25.40;12.80;;;;;;;-0.23;49.48;96818.41;5088344;28;20024;-72
2022/03/22 02:39:11;;;;;;;22.33;12.20;;;;;;;-0.07;49.47;96823.78;5087722;28;20016;-72
2022/03/22 02:41:36;;;;;;;21.10;10.90;;;;;;;-0.16;49.58;96817.19;5088019;28;20039;-73
2022/03/22 02:44:02;;;;;;;20.42;11.40;;;;;;;-0.38;49.72;96816.47;5087621;28;20198;-72
2022/03/22 02:46:27;;;;;;;27.48;11.68;;;;;;;-0.42;49.45;96819.31;5087795;28;20050;-72
2022/03/22 02:48:54;;;;;;;24.50;13.05;;;;;;;-0.40;50.14;96820.09;5087641;28;20514;-72
2022/03/22 02:51:19;;;;;;;27.10;14.40;;;;;;;-0.57;50.63;96818.28;5087495;28;20106;-71
2022/03/22 02:53:45;;;;;;;20.55;11.30;;;;;;;-0.76;50.80;96835.81;5086393;28;20422;-72
2022/03/22 02:56:10;;;;;;;25.42;13.05;;;;;;;-0.67;50.55;96823.13;5087370;28;20408;-72
2022/03/22 02:58:36;;;;;;;24.15;12.68;;;;;;;-0.76;51.02;96835.81;5087763;28;20023;-72
2022/03/22 03:01:02;;;;;;;22.88;12.60;;;;;;;-0.82;50.96;96832.63;5087481;28;20028;-72
2022/03/22 03:03:27;;;;;;;24.25;13.02;;;;;;;-0.97;51.23;96831.53;5087438;28;20064;-71
2022/03/22 03:05:53;;;;;;;22.90;12.25;;;;;;;-1.35;52.43;96835.00;5087233;28;20468;-72
2022/03/22 03:08:18;;;;;;;22.75;12.38;;;;;;;-1.24;52.08;96835.34;5087369;28;20024;-71
2022/03/22 03:10:44;;;;;;;26.92;13.00;;;;;;;-1.05;51.75;96829.25;5086939;28;20454;-71
2022/03/22 03:13:10;;;;;;;30.55;13.60;;;;;;;-1.14;52.44;96827.88;5086962;28;20417;-72
2022/03/22 03:15:36;;;;;;;24.08;12.02;;;;;;;-1.07;51.02;96841.63;5087119;28;20081;-72
2022/03/22 03:18:01;;;;;;;23.55;12.68;;;;;;;-1.06;51.13;96817.88;5086755;28;20082;-72
2022/03/22 03:20:27;;;;;;;22.13;12.98;;;;;;;-1.06;51.00;96817.00;5085897;28;20036;-72
2022/03/22 03:22:52;;;;;;;22.20;11.75;;;;;;;-1.08;51.37;96824.13;5086949;28;20028;-72
2022/03/22 03:25:18;;;;;;;21.48;11.65;;;;;;;-1.03;51.26;96823.00;5087253;28;20028;-71
2022/03/22 03:27:43;;;;;;;21.48;11.52;;;;;;;-1.00;50.87;96822.84;5086505;28;20043;-72
2022/03/22 03:30:09;;;;;;;25.00;12.13;;;;;;;-1.02;50.88;96824.72;5085757;28;20123;-72
2022/03/22 03:32:34;;;;;;;24.17;12.85;;;;;;;-1.10;50.78;96820.72;5086628;28;20081;-71
2022/03/22 03:35:00;;;;;;;22.42;12.20;;;;;;;-1.13;50.53;96817.28;5084952;28;20040;-72
2022/03/22 03:37:28;;;;;;;24.50;12.35;;;;;;;-1.20;51.10;96830.81;5087343;28;20031;-72
2022/03/22 03:39:53;;;;;;;22.23;12.30;;;;;;;-1.31;51.72;96823.41;5083550;28;20036;-72
2022/03/22 03:42:19;;;;;;;24.05;12.48;;;;;;;-1.30;51.03;96814.56;5086788;28;20374;-72
2022/03/22 03:47:28;;;;;;;22.38;12.63;;;;;;;-1.34;51.69;96832.28;5086512;28;20057;-72
2022/03/22 03:49:55;;;;;;;20.08;11.35;;;;;;;-1.27;50.99;96822.31;5084998;28;20028;-72
2022/03/22 03:52:22;;;;;;;20.55;10.18;;;;;;;-1.27;50.72;96819.69;5086274;28;20103;-72
2022/03/22 03:54:48;;;;;;;24.50;11.68;;;;;;;-1.22;50.70;96817.72;5083580;28;20020;-71
2022/03/22 03:57:13;;;;;;;24.27;11.43;;;;;;;-1.10;49.86;96816.31;5084703;28;20093;-71
2022/03/22 03:59:39;;;;;;;25.75;13.18;;;;;;;-1.17;50.93;96831.53;5086614;28;20020;-73
2022/03/22 04:02:06;;;;;;;22.02;11.43;;;;;;;-1.17;50.38;96814.88;5086015;28;20032;-71
2022/03/22 04:04:31;;;;;;;24.02;12.48;;;;;;;-1.16;50.16;96820.06;5086268;28;20024;-71
2022/03/22 04:06:56;;;;;;;19.65;11.48;;;;;;;-1.04;49.72;96828.31;5084829;28;20440;-73
2022/03/22 04:09:22;;;;;;;22.83;11.60;;;;;;;-1.05;49.82;96821.38;5085871;28;20410;-71
2022/03/22 04:11:47;;;;;;;20.75;11.57;;;;;;;-1.03;50.07;96816.88;5084808;28;20020;-73
2022/03/22 04:14:13;;;;;;;20.52;11.93;;;;;;;-1.10;50.31;96825.97;5085767;28;20081;-72
2022/03/22 04:16:39;;;;;;;23.13;12.07;;;;;;;-1.15;50.46;96821.78;5086371;28;20061;-72
2022/03/22 04:19:05;;;;;;;27.63;13.57;;;;;;;-1.17;50.55;96821.00;5085517;28;20024;-72
2022/03/22 04:21:34;;;;;;;26.80;12.95;;;;;;;-1.18;50.77;96835.09;5084869;28;20081;-72
2022/03/22 04:24:01;;;;;;;25.25;12.75;;;;;;;-1.18;51.41;96824.56;5084188;28;20126;-72
2022/03/22 04:26:26;;;;;;;24.92;13.82;;;;;;;-1.31;52.06;96828.66;5085773;28;20426;-72
2022/03/22 04:34:24;;;;;;;29.10;13.68;;;;;;;-1.39;50.57;96832.47;5068291;28;20043;-71
2022/03/22 04:36:55;;;;;;;23.52;12.40;;;;;;;-1.45;50.60;96827.47;5081877;28;20036;-73
2022/03/22 04:39:25;;;;;;;27.60;12.35;;;;;;;-1.50;50.83;96824.22;5077155;28;20032;-73
2022/03/22 04:41:51;;;;;;;27.95;14.25;;;;;;;-1.58;51.09;96823.69;5080533;28;20028;-72
2022/03/22 04:44:17;;;;;;;25.75;12.55;;;;;;;-1.50;50.92;96819.78;5079224;28;20024;-72
2022/03/22 04:46:42;;;;;;;23.25;12.15;;;;;;;-1.55;50.81;96820.94;5080718;28;20078;-73
2022/03/22 04:49:08;;;;;;;26.67;14.00;;;;;;;-1.57;51.61;96828.03;5081830;28;20028;-73
2022/03/22 04:57:02;;;;;;;28.58;15.98;;;;;;;-1.51;51.88;96819.88;5081323;28;20039;-73
2022/03/22 04:59:28;;;;;;;19.63;11.13;;;;;;;-1.47;51.00;96824.09;5083791;28;20036;-71
2022/03/22 05:01:53;;;;;;;23.50;11.65;;;;;;;-1.35;50.84;96819.22;5080312;28;20032;-71
2022/03/22 05:04:19;;;;;;;25.58;11.95;;;;;;;-1.13;50.17;96811.19;5083281;28;20032;-72
2022/03/22 05:06:44;;;;;;;24.10;13.05;;;;;;;-0.90;49.86;96818.00;5081799;28;20423;-71
2022/03/22 05:09:12;;;;;;;26.83;12.70;;;;;;;-0.74;49.22;96809.38;5082366;28;20269;-70
2022/03/22 05:11:38;;;;;;;29.70;14.27;;;;;;;-0.44;48.84;96823.81;5081558;28;20036;-72
2022/03/22 05:14:03;;;;;;;24.48;13.45;;;;;;;-0.22;48.46;96818.34;5082516;28;20107;-73
2022/03/22 05:16:32;;;;;;;31.77;14.82;;;;;;;0.03;47.70;96813.63;5081107;28;20418;-71
2022/03/22 05:18:58;;;;;;;28.70;13.98;;;;;;;-0.03;48.56;96822.69;5082751;28;20111;-72
2022/03/22 05:21:27;;;;;;;28.05;14.25;;;;;;;0.07;48.60;96821.31;5079706;28;20043;-72
2022/03/22 05:23:52;;;;;;;29.02;14.82;;;;;;;0.29;47.42;96828.13;5075931;28;20035;-72
2022/03/22 05:26:18;;;;;;;34.65;15.05;;;;;;;0.49;45.60;96816.56;5078968;28;20082;-71
2022/03/22 05:28:44;;;;;;;24.27;13.52;;;;;;;0.74;46.32;96812.59;5078867;28;20120;-73
2022/03/22 05:31:10;;;;;;;26.55;13.82;;;;;;;1.01;44.00;96813.00;5077424;28;20039;-72
2022/03/22 05:33:38;;;;;;;22.27;11.48;;;;;;;1.25;43.41;96802.00;5081106;28;20065;-72
2022/03/22 05:36:04;;;;;;;22.33;12.10;;;;;;;1.59;42.28;96802.78;5065638;28;20059;-73
2022/03/22 05:38:30;;;;;;;26.08;12.77;;;;;;;1.80;42.84;96800.69;5081906;28;20028;-73
2022/03/22 05:40:56;;;;;;;24.17;12.93;;;;;;;1.90;42.67;96806.31;5081903;28;20028;-73
2022/03/22 05:43:22;;;;;;;23.13;13.15;;;;;;;2.13;44.30;96795.31;5081343;28;20862;-72
2022/03/22 05:45:48;;;;;;;23.67;13.18;;;;;;;2.44;43.36;96801.41;5080543;28;20035;-74
2022/03/22 05:48:17;;;;;;;23.52;12.98;;;;;;;2.74;42.90;96810.25;5061030;28;20124;-72
2022/03/22 05:50:43;;;;;;;23.50;12.13;;;;;;;2.95;42.29;96797.50;5081038;28;20171;-74
2022/03/22 05:53:10;;;;;;;26.65;12.02;;;;;;;3.13;40.83;96797.28;5082484;28;20046;-74
2022/03/22 05:55:36;;;;;;;22.80;11.77;;;;;;;3.41;40.14;96795.50;5078042;28;21810;-74
2022/03/22 05:58:01;;;;;;;21.98;11.48;;;;;;;3.72;39.19;96796.19;5077478;28;20037;-72
2022/03/22 06:00:27;;;;;;;18.40;10.55;;;;;;;3.86;38.89;96791.75;5076353;28;20149;-72
2022/03/22 06:02:52;;;;;;;20.90;10.82;;;;;;;4.21;37.84;96788.53;5078280;28;20032;-71
2022/03/22 06:05:18;;;;;;;17.20;10.25;;;;;;;4.58;36.97;96801.13;5079790;28;20109;-70
2022/03/22 06:07:43;;;;;;;19.77;10.57;;;;;;;4.66;37.41;96795.31;5080079;28;20559;-69
2022/03/22 06:10:09;;;;;;;20.23;10.68;;;;;;;4.92;36.86;96798.78;5084825;28;20024;-69
2022/03/22 06:12:39;;;;;;;18.83;10.50;;;;;;;5.21;36.67;96788.84;5082043;28;20055;-68
2022/03/22 06:15:15;;;;;;;16.88;9.73;;;;;;;5.37;37.19;96788.59;5087080;28;20024;-69
2022/03/22 06:17:49;;;;;;;20.27;10.10;;;;;;;5.61;36.65;96785.94;5089066;28;20552;-69
2022/03/22 06:20:16;;;;;;;24.75;10.80;;;;;;;5.85;35.57;96789.59;5086514;28;20449;-68
2022/03/22 06:22:42;;;;;;;19.73;9.88;;;;;;;6.12;33.63;96777.84;5088722;28;20552;-69
2022/03/22 06:25:08;;;;;;;16.17;9.35;;;;;;;6.32;33.05;96781.66;5087936;28;20054;-69
2022/03/22 06:27:35;;;;;;;15.77;8.93;;;;;;;6.54;32.88;96772.03;5088317;28;20081;-69
2022/03/22 06:30:05;;;;;;;18.50;9.70;;;;;;;6.62;32.64;96774.97;5088207;28;20028;-69
2022/03/22 06:32:31;;;;;;;16.15;9.43;;;;;;;6.66;32.85;96778.22;5087584;28;20109;-68
2022/03/22 06:34:56;;;;;;;18.27;9.40;;;;;;;6.80;32.40;96764.66;5088310;28;20051;-70
2022/03/22 06:37:21;;;;;;;16.77;9.52;;;;;;;6.60;32.79;96779.56;5087933;28;20506;-69
2022/03/22 06:39:47;;;;;;;18.23;9.70;;;;;;;6.30;33.51;96776.44;5088449;28;20119;-69
2022/03/22 06:42:13;;;;;;;20.67;9.90;;;;;;;6.09;34.12;96773.63;5087569;28;20023;-70
2022/03/22 06:44:40;;;;;;;14.95;9.32;;;;;;;6.05;33.62;96773.00;5087877;28;20367;-68
2022/03/22 06:47:05;;;;;;;15.10;9.48;;;;;;;6.12;34.26;96773.41;5088096;28;20384;-69
2022/03/22 06:49:31;;;;;;;16.58;10.48;;;;;;;6.05;33.83;96772.13;5087271;28;20450;-69
2022/03/22 06:51:56;;;;;;;16.27;8.98;;;;;;;6.05;33.34;96767.66;5087785;28;20112;-68
2022/03/22 06:54:22;;;;;;;18.77;9.40;;;;;;;5.97;33.36;96767.38;5087523;28;20383;-68
2022/03/22 06:56:47;;;;;;;13.77;8.60;;;;;;;5.88;34.29;96770.72;5088265;28;20053;-68
2022/03/22 06:59:13;;;;;;;13.23;8.50;;;;;;;5.94;34.53;96762.28;5087641;28;20525;-68
2022/03/22 07:01:38;;;;;;;17.88;9.93;;;;;;;6.25;33.33;96765.31;5087627;28;20485;-68
2022/03/22 07:04:04;;;;;;;19.23;11.52;;;;;;;6.40;33.69;96771.28;5087582;28;20039;-69
2022/03/22 07:06:29;;;;;;;16.90;10.52;;;;;;;6.73;32.56;96766.13;5087019;28;20056;-69
2022/03/22 07:08:55;;;;;;;20.13;11.45;;;;;;;6.95;32.02;96759.09;5088015;28;20359;-69
2022/03/22 07:14:25;;;;;;;19.63;11.18;;;;;;;6.82;31.32;96755.72;5075022;28;20032;-69
2022/03/22 07:16:50;;;;;;;19.58;10.77;;;;;;;6.77;32.26;96758.75;5087094;28;20023;-69
2022/03/22 07:19:16;;;;;;;16.08;9.43;;;;;;;6.69;31.13;96756.66;5087049;28;20406;-69
2022/03/22 07:21:42;;;;;;;18.33;10.23;;;;;;;6.71;30.73;96759.19;5087005;28;20028;-68
2022/03/22 07:24:08;;;;;;;18.98;10.30;;;;;;;6.73;30.68;96757.25;5086967;28;20101;-70
2022/03/22 07:26:34;;;;;;;15.75;9.82;;;;;;;6.73;31.34;96752.78;5087198;28;20020;-68
2022/03/22 07:28:59;;;;;;;13.23;9.07;;;;;;;6.75;31.85;96750.88;5086876;28;20031;-69
2022/03/22 07:31:25;;;;;;;19.15;10.48;;;;;;;6.78;31.40;96744.44;5087276;28;20020;-69
2022/03/22 07:33:50;;;;;;;17.10;9.98;;;;;;;6.79;31.69;96741.63;5086799;28;20495;-69
2022/03/22 07:36:16;;;;;;;15.98;9.90;;;;;;;6.85;31.61;96744.81;5086794;28;20043;-69
2022/03/22 07:38:41;;;;;;;14.02;9.93;;;;;;;6.88;31.49;96740.03;5086429;28;20059;-69
2022/03/22 07:41:07;;;;;;;18.98;10.15;;;;;;;6.93;31.92;96739.72;5086899;28;20031;-68
2022/03/22 07:43:33;;;;;;;16.65;10.38;;;;;;;6.97;31.13;96730.47;5086605;28;20016;-68
2022/03/22 07:45:58;;;;;;;16.15;10.55;;;;;;;7.00;31.23;96732.91;5086910;28;20039;-68
2022/03/22 07:48:24;;;;;;;14.88;10.52;;;;;;;6.99;31.23;96733.88;5087029;28;20024;-69
2022/03/22 07:53:33;;;;;;;23.85;12.70;;;;;;;7.03;31.63;96735.31;5086332;28;20081;-69
2022/03/22 07:55:59;;;;;;;24.77;14.48;;;;;;;7.00;31.74;96735.56;5086444;28;20028;-69
2022/03/22 07:58:24;;;;;;;22.90;13.80;;;;;;;7.02;32.88;96738.97;5086363;28;20093;-68
2022/03/22 08:00:51;;;;;;;18.92;12.27;;;;;;;7.06;32.75;96734.25;5086308;28;20031;-69
2022/03/22 08:03:18;;;;;;;20.20;12.70;;;;;;;6.89;32.99;96738.25;5086016;28;20024;-69
2022/03/22 08:05:46;;;;;;;20.30;12.27;;;;;;;7.02;33.24;96732.78;5086422;28;20045;-69
2022/03/22 08:08:12;;;;;;;20.65;11.13;;;;;;;7.14;32.97;96729.13;5086025;28;20120;-68
2022/03/22 08:10:38;;;;;;;19.75;11.43;;;;;;;7.26;32.53;96732.63;5086027;28;20028;-68
2022/03/22 08:13:03;;;;;;;19.25;11.80;;;;;;;7.26;32.63;96729.09;5082755;28;20016;-69
2022/03/22 08:15:28;;;;;;;20.10;11.00;;;;;;;7.26;33.47;96729.97;5084525;28;20024;-70
2022/03/22 08:17:54;;;;;;;18.63;11.02;;;;;;;7.03;33.05;96735.31;5083939;28;20036;-68
2022/03/22 08:20:20;;;;;;;15.95;9.98;;;;;;;7.14;33.84;96737.13;5084038;28;20032;-69
2022/03/22 08:22:52;;;;;;;17.95;11.00;;;;;;;7.21;33.57;96729.47;5085756;28;20039;-69
2022/03/22 08:25:28;;;;;;;18.90;10.32;;;;;;;7.15;34.02;96727.31;5083774;28;20117;-69
2022/03/22 08:27:54;;;;;;;19.08;10.48;;;;;;;7.26;33.22;96729.97;5062433;28;20119;-70
2022/03/22 08:30:21;;;;;;;15.57;10.25;;;;;;;7.36;33.58;96731.88;5082606;28;20020;-70
2022/03/22 08:32:59;;;;;;;22.10;12.20;;;;;;;7.35;33.50;96739.03;5085844;28;20032;-70
2022/03/22 08:35:26;;;;;;;20.60;12.05;;;;;;;7.24;33.09;96726.56;5085816;28;20541;-71
2022/03/22 08:37:52;;;;;;;21.42;12.63;;;;;;;6.95;33.89;96732.41;5084195;28;20049;-70
2022/03/22 08:40:17;;;;;;;20.60;11.95;;;;;;;7.12;33.72;96723.09;5086148;28;20032;-69
2022/03/22 08:42:44;;;;;;;21.25;13.25;;;;;;;7.00;33.21;96734.72;5085201;28;20024;-70
2022/03/22 08:45:14;;;;;;;21.48;12.75;;;;;;;6.81;33.61;96728.19;5085781;28;20028;-69
2022/03/22 08:47:40;;;;;;;21.58;12.60;;;;;;;6.91;34.53;96729.16;5084053;28;20549;-69
2022/03/22 08:50:08;;;;;;;23.90;12.45;;;;;;;6.95;33.25;96727.06;5085358;28;20398;-70
2022/03/22 08:52:35;;;;;;;21.42;13.20;;;;;;;7.09;34.43;96718.00;5084856;28;20118;-70
2022/03/22 08:55:01;;;;;;;19.33;12.30;;;;;;;7.29;33.82;96713.69;5081463;28;20024;-70
2022/03/22 08:57:26;;;;;;;25.05;12.20;;;;;;;7.25;33.27;96722.94;5074366;28;20467;-69
2022/03/22 08:59:52;;;;;;;20.35;11.90;;;;;;;7.40;34.27;96719.97;5075978;28;20493;-70
2022/03/22 09:02:17;;;;;;;21.15;11.20;;;;;;;7.58;33.28;96719.47;5069966;28;20174;-70
2022/03/22 09:07:27;;;;;;;18.75;11.50;;;;;;;7.63;33.36;96709.22;5077438;28;20062;-69
2022/03/22 09:09:52;;;;;;;21.85;12.00;;;;;;;7.60;33.46;96698.81;5076251;28;20020;-70
2022/03/22 09:12:17;;;;;;;20.10;11.75;;;;;;;7.70;34.46;96699.75;5080847;28;20032;-70
2022/03/22 09:14:43;;;;;;;17.83;11.55;;;;;;;7.89;35.39;96703.53;5079950;28;20035;-70
2022/03/22 09:17:08;;;;;;;23.73;12.23;;;;;;;7.65;34.56;96691.25;5078840;28;20475;-70
2022/03/22 09:19:36;;;;;;;19.75;12.13;;;;;;;7.78;35.59;96705.31;5082375;28;20036;-70
2022/03/22 09:22:05;;;;;;;19.33;11.07;;;;;;;8.00;34.15;96706.16;5079066;28;20024;-69
2022/03/22 09:24:31;;;;;;;20.17;12.02;;;;;;;8.16;33.99;96703.03;5077063;28;20039;-70
2022/03/22 09:27:00;;;;;;;18.25;11.68;;;;;;;8.31;34.23;96708.06;5081004;28;20024;-69
2022/03/22 09:29:26;;;;;;;21.67;11.75;;;;;;;8.43;34.52;96689.28;5078120;28;20413;-69
2022/03/22 09:31:52;;;;;;;20.60;11.02;;;;;;;8.80;34.26;96678.09;5084807;28;20074;-70
2022/03/22 09:34:18;;;;;;;19.17;10.45;;;;;;;8.94;34.94;96673.31;5080511;28;20591;-70
2022/03/22 09:36:43;;;;;;;20.30;10.25;;;;;;;9.39;34.80;96664.84;5081013;28;20038;-69
2022/03/22 09:39:09;;;;;;;17.45;9.30;;;;;;;9.31;35.19;96662.00;5078654;28;20028;-70
2022/03/22 09:41:36;;;;;;;17.17;9.05;;;;;;;9.63;34.94;96660.91;5082708;28;20390;-69
2022/03/22 09:44:02;;;;;;;13.93;7.47;;;;;;;9.69;36.34;96661.34;5063937;28;20039;-70
2022/03/22 09:46:28;;;;;;;12.13;6.13;;;;;;;9.64;36.91;96656.41;5080218;28;20027;-68
2022/03/22 09:48:53;;;;;;;16.48;6.60;;;;;;;9.52;37.21;96653.00;5059813;28;20020;-69
2022/03/22 09:54:03;;;;;;;11.35;6.35;;;;;;;9.36;37.73;96656.22;5081043;28;20065;-70
2022/03/22 09:56:30;;;;;;;10.98;6.03;;;;;;;9.31;38.42;96653.13;5079846;28;20024;-70
2022/03/22 09:58:59;;;;;;;12.40;6.88;;;;;;;9.34;37.77;96652.84;5083023;28;20037;-69
2022/03/22 10:01:25;;;;;;;12.20;6.20;;;;;;;9.69;37.40;96648.75;5083229;28;20456;-69
2022/03/22 10:04:07;;;;;;;16.40;6.25;;;;;;;9.64;37.28;96645.69;5081280;28;20024;-70
2022/03/22 10:06:32;;;;;;;12.40;6.43;;;;;;;9.61;37.88;96635.22;5083603;28;20074;-70
2022/03/22 10:08:58;;;;;;;11.38;6.28;;;;;;;9.89;37.92;96633.53;5084212;28;20025;-69
2022/03/22 10:11:40;;;;;;;10.20;6.10;;;;;;;9.85;37.94;96631.28;5083012;28;20032;-70
2022/03/22 10:14:07;;;;;;;10.32;6.32;;;;;;;10.02;37.09;96618.97;5079128;28;20016;-70
2022/03/22 10:16:43;;;;;;;11.18;6.20;;;;;;;10.22;36.36;96616.25;5071142;28;20035;-71
2022/03/22 10:19:23;;;;;;;10.52;6.30;;;;;;;10.33;36.39;96612.56;5083304;28;20048;-70
2022/03/22 10:21:48;;;;;;;13.25;5.90;;;;;;;10.50;36.43;96610.97;5082941;28;20028;-69
2022/03/22 10:24:15;;;;;;;10.40;6.57;;;;;;;10.66;36.39;96601.41;5077399;28;20047;-69
2022/03/22 10:26:41;;;;;;;16.27;6.90;;;;;;;10.69;35.93;96604.66;5083586;28;20388;-70
2022/03/22 10:29:07;;;;;;;11.00;6.30;;;;;;;10.82;35.79;96603.47;5078955;28;20028;-70
2022/03/22 10:31:37;;;;;;;10.40;5.70;;;;;;;10.96;35.19;96586.84;5081482;28;20024;-69
2022/03/22 10:34:03;;;;;;;17.70;6.80;;;;;;;11.03;34.62;96564.78;5083029;28;20023;-70
2022/03/22 10:36:28;;;;;;;13.98;6.22;;;;;;;11.08;34.26;96573.22;5082447;28;20037;-69
2022/03/22 10:38:57;;;;;;;11.50;5.32;;;;;;;11.08;34.46;96576.75;5083482;28;20032;-69
2022/03/22 10:41:33;;;;;;;18.95;7.45;;;;;;;10.98;34.30;96595.59;5084028;28;20016;-70
2022/03/22 10:44:01;;;;;;;9.35;5.68;;;;;;;10.97;34.00;96588.56;5083867;28;20032;-70
2022/03/22 10:46:27;;;;;;;16.23;6.45;;;;;;;11.08;32.91;96568.69;5084060;28;20031;-70
2022/03/22 10:48:59;;;;;;;18.38;6.60;;;;;;;10.80;33.73;96575.94;5084059;28;20111;-70
2022/03/22 10:51:31;;;;;;;16.50;6.97;;;;;;;10.79;33.07;96579.59;5084437;28;20308;-70
2022/03/22 10:53:57;;;;;;;10.07;5.88;;;;;;;10.71;32.94;96550.84;5086655;28;20056;-69
2022/03/22 10:56:22;;;;;;;10.30;6.38;;;;;;;10.76;32.06;96559.28;5087052;28;20386;-69
2022/03/22 10:58:48;;;;;;;9.68;5.60;;;;;;;10.95;31.96;96558.31;5068901;28;20020;-69
2022/03/22 11:01:14;;;;;;;13.80;5.88;;;;;;;11.07;31.92;96555.44;5087205;28;20410;-69
2022/03/22 11:03:40;;;;;;;12.93;6.55;;;;;;;11.11;31.48;96548.75;5086180;28;20039;-69
2022/03/22 11:06:06;;;;;;;13.48;5.72;;;;;;;11.13;30.94;96547.63;5069245;28;20025;-69
2022/03/22 11:08:31;;;;;;;11.10;6.05;;;;;;;11.09;31.13;96545.38;5084941;28;20179;-70
2022/03/22 11:10:57;;;;;;;8.73;5.75;;;;;;;10.98;31.27;96544.59;5087655;28;20540;-70
2022/03/22 11:13:23;;;;;;;12.13;6.03;;;;;;;11.17;31.09;96539.25;5086907;28;20020;-69
2022/03/22 11:15:49;;;;;;;12.95;6.10;;;;;;;11.31;30.06;96532.47;5087793;28;20106;-68
2022/03/22 11:18:15;;;;;;;9.95;5.82;;;;;;;11.38;29.82;96530.88;5086806;28;20043;-69
2022/03/22 11:20:50;;;;;;;8.68;5.75;;;;;;;11.43;30.23;96522.34;5085962;28;20102;-70
2022/03/22 11:23:18;;;;;;;10.40;5.80;;;;;;;11.56;30.42;96524.66;5087028;28;20024;-69
2022/03/22 11:25:44;;;;;;;13.88;6.15;;;;;;;11.66;29.77;96511.94;5086874;28;20028;-70
2022/03/22 11:28:11;;;;;;;10.82;5.53;;;;;;;11.54;29.49;96499.78;5086949;28;20024;-70
2022/03/22 11:30:38;;;;;;;11.48;6.40;;;;;;;11.65;29.84;96515.63;5086451;28;20040;-70
2022/03/22 11:35:50;;;;;;;9.18;5.75;;;;;;;11.68;28.67;96514.47;5086736;28;20050;-69
2022/03/22 11:38:45;;;;;;;10.48;6.13;;;;;;;11.65;28.85;96504.88;5087108;28;20530;-69
2022/03/22 11:44:36;;;;;;;8.40;5.53;;;;;;;11.68;28.54;96504.56;5086624;28;20544;-68
2022/03/22 11:47:08;;;;;;;8.40;4.93;;;;;;;11.77;28.33;96493.88;5086846;28;20034;-69
2022/03/22 11:49:57;;;;;;;10.60;6.10;;;;;;;11.86;28.26;96482.16;5086558;28;20070;-69
2022/03/22 11:52:24;;;;;;;12.98;6.28;;;;;;;12.00;27.84;96486.09;5086353;28;20043;-69
2022/03/22 11:55:05;;;;;;;9.82;5.75;;;;;;;12.07;27.99;96475.56;5087117;28;20026;-69
2022/03/22 11:58:03;;;;;;;8.85;5.05;;;;;;;12.03;27.97;96474.16;5086063;28;20039;-70